sensor_id;sensor_type;location;lat;lon;timestamp;pressure;altitude;pressure_sealevel;temperature;humidity
50710;BME280;37033;49.994;21.992;2023-06-10T00:00:57;98983.42;;;17.11;81.24
50710;BME280;37033;49.994;21.992;2023-06-10T00:03:49;98985.15;;;17.10;81.38
50710;BME280;37033;49.994;21.992;2023-06-10T00:06:20;98984.50;;;17.09;81.44
50710;BME280;37033;49.994;21.992;2023-06-10T00:08:53;98980.49;;;17.09;81.47
50710;BME280;37033;49.994;21.992;2023-06-10T00:11:24;98974.67;;;17.08;81.53
50710;BME280;37033;49.994;21.992;2023-06-10T00:13:54;98975.63;;;17.07;81.40
50710;BME280;37033;49.994;21.992;2023-06-10T00:16:25;98972.08;;;17.06;81.50
50710;BME280;37033;49.994;21.992;2023-06-10T00:18:56;98979.13;;;17.04;81.48
50710;BME280;37033;49.994;21.992;2023-06-10T00:21:32;98976.59;;;17.01;81.35
50710;BME280;37033;49.994;21.992;2023-06-10T00:24:08;98980.04;;;16.97;81.32
50710;BME280;37033;49.994;21.992;2023-06-10T00:26:41;98979.85;;;16.93;81.46
50710;BME280;37033;49.994;21.992;2023-06-10T00:29:12;98981.07;;;16.89;81.23
50710;BME280;37033;49.994;21.992;2023-06-10T00:31:44;98982.37;;;16.86;81.29
50710;BME280;37033;49.994;21.992;2023-06-10T00:34:15;98977.36;;;16.81;81.38
50710;BME280;37033;49.994;21.992;2023-06-10T00:36:46;98983.60;;;16.75;81.45
50710;BME280;37033;49.994;21.992;2023-06-10T00:39:16;98985.06;;;16.72;81.31
50710;BME280;37033;49.994;21.992;2023-06-10T00:41:47;98983.75;;;16.68;81.56
50710;BME280;37033;49.994;21.992;2023-06-10T00:44:18;98982.97;;;16.65;81.47
50710;BME280;37033;49.994;21.992;2023-06-10T00:46:48;98980.98;;;16.62;81.55
50710;BME280;37033;49.994;21.992;2023-06-10T00:49:21;98981.63;;;16.57;81.44
50710;BME280;37033;49.994;21.992;2023-06-10T00:51:52;98984.09;;;16.53;81.35
50710;BME280;37033;49.994;21.992;2023-06-10T00:54:23;98988.17;;;16.50;81.33
50710;BME280;37033;49.994;21.992;2023-06-10T00:56:56;98989.98;;;16.46;81.46
50710;BME280;37033;49.994;21.992;2023-06-10T00:59:26;98988.91;;;16.43;81.47
50710;BME280;37033;49.994;21.992;2023-06-10T01:01:58;98988.34;;;16.39;81.20
50710;BME280;37033;49.994;21.992;2023-06-10T01:04:30;98986.84;;;16.34;81.34
50710;BME280;37033;49.994;21.992;2023-06-10T01:07:08;98986.55;;;16.31;81.36
50710;BME280;37033;49.994;21.992;2023-06-10T01:09:49;98984.66;;;16.28;81.56
50710;BME280;37033;49.994;21.992;2023-06-10T01:12:29;98983.21;;;16.24;81.69
50710;BME280;37033;49.994;21.992;2023-06-10T01:15:01;98985.34;;;16.20;81.72
50710;BME280;37033;49.994;21.992;2023-06-10T01:17:33;98984.59;;;16.18;81.75
50710;BME280;37033;49.994;21.992;2023-06-10T01:20:07;98981.49;;;16.15;81.80
50710;BME280;37033;49.994;21.992;2023-06-10T01:22:41;98984.14;;;16.13;81.84
50710;BME280;37033;49.994;21.992;2023-06-10T01:25:14;98983.00;;;16.12;81.87
50710;BME280;37033;49.994;21.992;2023-06-10T01:27:47;98985.42;;;16.11;82.05
50710;BME280;37033;49.994;21.992;2023-06-10T01:30:21;98992.02;;;16.11;82.19
50710;BME280;37033;49.994;21.992;2023-06-10T01:32:59;98995.20;;;16.09;82.18
50710;BME280;37033;49.994;21.992;2023-06-10T01:35:32;98995.73;;;16.05;82.29
50710;BME280;37033;49.994;21.992;2023-06-10T01:38:04;99000.30;;;16.00;82.36
50710;BME280;37033;49.994;21.992;2023-06-10T01:40:35;98996.67;;;15.96;82.67
50710;BME280;37033;49.994;21.992;2023-06-10T01:43:06;98996.91;;;15.93;82.75
50710;BME280;37033;49.994;21.992;2023-06-10T01:45:37;99000.05;;;15.92;82.86
50710;BME280;37033;49.994;21.992;2023-06-10T01:48:08;99001.32;;;15.91;83.08
50710;BME280;37033;49.994;21.992;2023-06-10T01:50:38;99001.29;;;15.89;83.03
50710;BME280;37033;49.994;21.992;2023-06-10T01:53:09;99003.55;;;15.88;83.13
50710;BME280;37033;49.994;21.992;2023-06-10T01:55:40;99006.46;;;15.87;83.29
50710;BME280;37033;49.994;21.992;2023-06-10T01:58:10;99004.11;;;15.85;83.33
50710;BME280;37033;49.994;21.992;2023-06-10T02:00:41;99006.31;;;15.84;83.29
50710;BME280;37033;49.994;21.992;2023-06-10T02:03:12;99003.27;;;15.80;83.57
50710;BME280;37033;49.994;21.992;2023-06-10T02:05:43;99000.99;;;15.77;83.52
50710;BME280;37033;49.994;21.992;2023-06-10T02:08:13;99000.90;;;15.75;83.53
50710;BME280;37033;49.994;21.992;2023-06-10T02:10:44;98998.21;;;15.72;83.69
50710;BME280;37033;49.994;21.992;2023-06-10T02:13:15;98996.80;;;15.69;83.81
50710;BME280;37033;49.994;21.992;2023-06-10T02:15:45;98994.69;;;15.66;83.84
50710;BME280;37033;49.994;21.992;2023-06-10T02:18:16;98993.50;;;15.62;83.98
50710;BME280;37033;49.994;21.992;2023-06-10T02:20:50;98993.73;;;15.60;83.95
50710;BME280;37033;49.994;21.992;2023-06-10T02:23:20;98995.83;;;15.58;84.45
50710;BME280;37033;49.994;21.992;2023-06-10T02:25:51;98994.33;;;15.53;84.47
50710;BME280;37033;49.994;21.992;2023-06-10T02:28:21;98995.77;;;15.51;84.58
50710;BME280;37033;49.994;21.992;2023-06-10T02:30:52;98997.36;;;15.51;84.65
50710;BME280;37033;49.994;21.992;2023-06-10T02:33:23;98996.52;;;15.52;84.71
50710;BME280;37033;49.994;21.992;2023-06-10T02:35:54;98998.13;;;15.51;84.61
50710;BME280;37033;49.994;21.992;2023-06-10T02:38:25;98998.02;;;15.49;84.57
50710;BME280;37033;49.994;21.992;2023-06-10T02:40:56;99003.08;;;15.48;84.77
50710;BME280;37033;49.994;21.992;2023-06-10T02:43:26;99005.23;;;15.45;84.82
50710;BME280;37033;49.994;21.992;2023-06-10T02:45:57;99007.55;;;15.40;85.09
50710;BME280;37033;49.994;21.992;2023-06-10T02:48:28;99006.48;;;15.35;85.21
50710;BME280;37033;49.994;21.992;2023-06-10T02:50:59;99006.14;;;15.35;85.22
50710;BME280;37033;49.994;21.992;2023-06-10T02:53:29;99004.23;;;15.37;85.40
50710;BME280;37033;49.994;21.992;2023-06-10T02:56:00;99009.15;;;15.38;85.42
50710;BME280;37033;49.994;21.992;2023-06-10T02:58:31;99012.42;;;15.41;85.46
50710;BME280;37033;49.994;21.992;2023-06-10T03:01:01;99017.50;;;15.43;85.59
50710;BME280;37033;49.994;21.992;2023-06-10T03:03:32;99013.12;;;15.44;85.45
50710;BME280;37033;49.994;21.992;2023-06-10T03:06:03;99008.52;;;15.45;85.67
50710;BME280;37033;49.994;21.992;2023-06-10T03:08:34;99015.03;;;15.46;85.76
50710;BME280;37033;49.994;21.992;2023-06-10T03:11:05;99021.48;;;15.47;85.58
50710;BME280;37033;49.994;21.992;2023-06-10T03:13:35;99024.81;;;15.49;85.72
50710;BME280;37033;49.994;21.992;2023-06-10T03:16:06;99028.04;;;15.50;85.77
50710;BME280;37033;49.994;21.992;2023-06-10T03:18:37;99028.74;;;15.51;85.77
50710;BME280;37033;49.994;21.992;2023-06-10T03:21:08;99032.73;;;15.53;85.78
50710;BME280;37033;49.994;21.992;2023-06-10T03:23:39;99031.23;;;15.55;85.87
50710;BME280;37033;49.994;21.992;2023-06-10T03:26:10;99033.58;;;15.57;85.95
50710;BME280;37033;49.994;21.992;2023-06-10T03:28:42;99037.41;;;15.59;86.11
50710;BME280;37033;49.994;21.992;2023-06-10T03:31:12;99035.42;;;15.63;86.22
50710;BME280;37033;49.994;21.992;2023-06-10T03:33:43;99031.40;;;15.65;86.28
50710;BME280;37033;49.994;21.992;2023-06-10T03:36:13;99031.39;;;15.66;86.23
50710;BME280;37033;49.994;21.992;2023-06-10T03:38:44;99032.43;;;15.67;86.35
50710;BME280;37033;49.994;21.992;2023-06-10T03:41:15;99032.20;;;15.69;86.40
50710;BME280;37033;49.994;21.992;2023-06-10T03:43:45;99031.03;;;15.73;86.49
50710;BME280;37033;49.994;21.992;2023-06-10T03:46:16;99030.27;;;15.75;86.60
50710;BME280;37033;49.994;21.992;2023-06-10T03:48:48;99028.50;;;15.78;86.58
50710;BME280;37033;49.994;21.992;2023-06-10T03:51:19;99029.84;;;15.82;86.73
50710;BME280;37033;49.994;21.992;2023-06-10T03:53:49;99029.92;;;15.85;86.75
50710;BME280;37033;49.994;21.992;2023-06-10T03:56:20;99027.77;;;15.87;86.69
50710;BME280;37033;49.994;21.992;2023-06-10T03:58:50;99024.19;;;15.90;87.04
50710;BME280;37033;49.994;21.992;2023-06-10T04:01:21;99026.89;;;15.95;87.04
50710;BME280;37033;49.994;21.992;2023-06-10T04:03:52;99024.27;;;16.00;87.04
50710;BME280;37033;49.994;21.992;2023-06-10T04:06:23;99024.62;;;16.06;87.17
50710;BME280;37033;49.994;21.992;2023-06-10T04:08:54;99023.14;;;16.12;87.39
50710;BME280;37033;49.994;21.992;2023-06-10T04:11:26;99021.94;;;16.19;87.31
50710;BME280;37033;49.994;21.992;2023-06-10T04:13:57;99024.89;;;16.25;87.42
50710;BME280;37033;49.994;21.992;2023-06-10T04:16:27;99027.98;;;16.30;87.36
50710;BME280;37033;49.994;21.992;2023-06-10T04:18:58;99028.98;;;16.35;87.40
50710;BME280;37033;49.994;21.992;2023-06-10T04:21:29;99024.05;;;16.39;87.45
50710;BME280;37033;49.994;21.992;2023-06-10T04:23:59;99024.99;;;16.45;87.69
50710;BME280;37033;49.994;21.992;2023-06-10T04:26:30;99029.88;;;16.50;87.76
50710;BME280;37033;49.994;21.992;2023-06-10T04:29:01;99030.16;;;16.54;87.67
50710;BME280;37033;49.994;21.992;2023-06-10T04:31:31;99031.66;;;16.58;87.63
50710;BME280;37033;49.994;21.992;2023-06-10T04:34:02;99030.30;;;16.62;87.66
50710;BME280;37033;49.994;21.992;2023-06-10T04:36:32;99030.70;;;16.67;87.52
50710;BME280;37033;49.994;21.992;2023-06-10T04:39:03;99032.08;;;16.71;87.54
50710;BME280;37033;49.994;21.992;2023-06-10T04:41:35;99037.52;;;16.75;87.69
50710;BME280;37033;49.994;21.992;2023-06-10T04:44:05;99034.29;;;16.81;87.65
50710;BME280;37033;49.994;21.992;2023-06-10T04:46:36;99039.25;;;16.86;87.62
50710;BME280;37033;49.994;21.992;2023-06-10T04:49:07;99044.44;;;16.94;87.63
50710;BME280;37033;49.994;21.992;2023-06-10T04:51:37;99047.38;;;17.00;87.77
50710;BME280;37033;49.994;21.992;2023-06-10T04:54:08;99046.97;;;17.07;87.54
50710;BME280;37033;49.994;21.992;2023-06-10T04:56:39;99045.96;;;17.13;87.42
50710;BME280;37033;49.994;21.992;2023-06-10T04:59:09;99043.20;;;17.20;87.34
50710;BME280;37033;49.994;21.992;2023-06-10T05:01:40;99041.09;;;17.26;87.33
50710;BME280;37033;49.994;21.992;2023-06-10T05:04:10;99042.04;;;17.32;87.15
50710;BME280;37033;49.994;21.992;2023-06-10T05:06:41;99041.77;;;17.35;86.90
50710;BME280;37033;49.994;21.992;2023-06-10T05:09:12;99047.03;;;17.38;86.88
50710;BME280;37033;49.994;21.992;2023-06-10T05:11:43;99046.90;;;17.39;86.78
50710;BME280;37033;49.994;21.992;2023-06-10T05:14:14;99048.08;;;17.42;86.80
50710;BME280;37033;49.994;21.992;2023-06-10T05:16:45;99045.99;;;17.45;86.73
50710;BME280;37033;49.994;21.992;2023-06-10T05:19:16;99050.13;;;17.49;86.80
50710;BME280;37033;49.994;21.992;2023-06-10T05:21:46;99052.40;;;17.54;86.56
50710;BME280;37033;49.994;21.992;2023-06-10T05:24:17;99057.97;;;17.62;86.38
50710;BME280;37033;49.994;21.992;2023-06-10T05:26:48;99061.06;;;17.69;86.22
50710;BME280;37033;49.994;21.992;2023-06-10T05:29:19;99062.28;;;17.76;85.95
50710;BME280;37033;49.994;21.992;2023-06-10T05:31:50;99060.41;;;17.81;85.68
50710;BME280;37033;49.994;21.992;2023-06-10T05:34:20;99061.71;;;17.87;85.43
50710;BME280;37033;49.994;21.992;2023-06-10T05:36:51;99062.23;;;17.97;85.29
50710;BME280;37033;49.994;21.992;2023-06-10T05:39:22;99062.23;;;18.07;84.94
50710;BME280;37033;49.994;21.992;2023-06-10T05:41:52;99068.38;;;18.22;84.80
50710;BME280;37033;49.994;21.992;2023-06-10T05:44:23;99071.04;;;18.41;84.28
50710;BME280;37033;49.994;21.992;2023-06-10T05:46:53;99073.39;;;18.61;83.53
50710;BME280;37033;49.994;21.992;2023-06-10T05:49:24;99071.63;;;18.78;82.90
50710;BME280;37033;49.994;21.992;2023-06-10T05:51:55;99072.42;;;18.83;81.87
50710;BME280;37033;49.994;21.992;2023-06-10T05:54:28;99069.49;;;18.84;81.88
50710;BME280;37033;49.994;21.992;2023-06-10T05:56:58;99075.96;;;18.88;81.84
50710;BME280;37033;49.994;21.992;2023-06-10T05:59:29;99079.94;;;18.93;81.31
50710;BME280;37033;49.994;21.992;2023-06-10T06:02:00;99077.42;;;19.04;81.56
50710;BME280;37033;49.994;21.992;2023-06-10T06:04:30;99082.56;;;19.18;80.91
50710;BME280;37033;49.994;21.992;2023-06-10T06:07:01;99084.09;;;19.30;80.52
50710;BME280;37033;49.994;21.992;2023-06-10T06:09:32;99084.02;;;19.36;80.36
50710;BME280;37033;49.994;21.992;2023-06-10T06:12:03;99082.75;;;19.44;79.60
50710;BME280;37033;49.994;21.992;2023-06-10T06:14:38;99082.66;;;19.50;79.39
50710;BME280;37033;49.994;21.992;2023-06-10T06:17:09;99087.47;;;19.58;78.12
50710;BME280;37033;49.994;21.992;2023-06-10T06:19:40;99085.86;;;19.61;76.87
50710;BME280;37033;49.994;21.992;2023-06-10T06:22:11;99087.19;;;19.66;76.38
50710;BME280;37033;49.994;21.992;2023-06-10T06:24:41;99085.42;;;19.72;75.73
50710;BME280;37033;49.994;21.992;2023-06-10T06:27:12;99083.99;;;19.74;75.15
50710;BME280;37033;49.994;21.992;2023-06-10T06:29:43;99087.93;;;19.73;75.09
50710;BME280;37033;49.994;21.992;2023-06-10T06:32:14;99088.58;;;19.74;75.56
50710;BME280;37033;49.994;21.992;2023-06-10T06:34:45;99086.83;;;19.78;75.11
50710;BME280;37033;49.994;21.992;2023-06-10T06:37:16;99091.80;;;19.78;74.75
50710;BME280;37033;49.994;21.992;2023-06-10T06:39:47;99094.94;;;19.81;75.17
50710;BME280;37033;49.994;21.992;2023-06-10T06:42:17;99099.42;;;19.90;74.96
50710;BME280;37033;49.994;21.992;2023-06-10T06:44:48;99102.76;;;19.92;74.22
50710;BME280;37033;49.994;21.992;2023-06-10T06:47:19;99102.92;;;19.89;74.19
50710;BME280;37033;49.994;21.992;2023-06-10T06:49:50;99101.09;;;19.84;74.41
50710;BME280;37033;49.994;21.992;2023-06-10T06:52:21;99102.30;;;19.87;74.17
50710;BME280;37033;49.994;21.992;2023-06-10T06:54:52;99100.73;;;19.90;74.09
50710;BME280;37033;49.994;21.992;2023-06-10T06:57:22;99103.70;;;19.94;74.20
50710;BME280;37033;49.994;21.992;2023-06-10T06:59:53;99105.86;;;20.01;73.60
50710;BME280;37033;49.994;21.992;2023-06-10T07:02:24;99104.89;;;20.05;73.15
50710;BME280;37033;49.994;21.992;2023-06-10T07:04:54;99097.90;;;20.08;72.58
50710;BME280;37033;49.994;21.992;2023-06-10T07:07:25;99096.41;;;20.13;72.69
50710;BME280;37033;49.994;21.992;2023-06-10T07:09:56;99094.83;;;20.22;71.52
50710;BME280;37033;49.994;21.992;2023-06-10T07:12:26;99094.91;;;20.23;71.03
50710;BME280;37033;49.994;21.992;2023-06-10T07:14:57;99092.82;;;20.22;71.13
50710;BME280;37033;49.994;21.992;2023-06-10T07:17:27;99091.95;;;20.31;71.69
50710;BME280;37033;49.994;21.992;2023-06-10T07:19:58;99096.41;;;20.47;71.43
50710;BME280;37033;49.994;21.992;2023-06-10T07:22:29;99096.08;;;20.62;70.66
50710;BME280;37033;49.994;21.992;2023-06-10T07:25:00;99094.23;;;20.72;69.96
50710;BME280;37033;49.994;21.992;2023-06-10T07:27:31;99093.88;;;20.73;69.57
50710;BME280;37033;49.994;21.992;2023-06-10T07:30:01;99094.48;;;20.78;69.64
50710;BME280;37033;49.994;21.992;2023-06-10T07:32:32;99100.92;;;20.95;69.84
50710;BME280;37033;49.994;21.992;2023-06-10T07:35:03;99097.09;;;21.10;69.29
50710;BME280;37033;49.994;21.992;2023-06-10T07:37:34;99102.32;;;21.20;68.14
50710;BME280;37033;49.994;21.992;2023-06-10T07:40:06;99103.11;;;21.28;68.21
50710;BME280;37033;49.994;21.992;2023-06-10T07:42:37;99101.58;;;21.37;67.33
50710;BME280;37033;49.994;21.992;2023-06-10T07:45:11;99097.30;;;21.48;67.31
50710;BME280;37033;49.994;21.992;2023-06-10T07:47:42;99103.76;;;21.62;67.08
50710;BME280;37033;49.994;21.992;2023-06-10T07:50:13;99109.16;;;21.74;66.25
50710;BME280;37033;49.994;21.992;2023-06-10T07:52:44;99109.89;;;21.84;66.06
50710;BME280;37033;49.994;21.992;2023-06-10T07:55:14;99109.35;;;21.95;65.52
50710;BME280;37033;49.994;21.992;2023-06-10T07:57:45;99119.54;;;22.00;65.01
50710;BME280;37033;49.994;21.992;2023-06-10T08:00:17;99113.98;;;21.98;63.94
50710;BME280;37033;49.994;21.992;2023-06-10T08:02:47;99114.48;;;21.88;64.01
50710;BME280;37033;49.994;21.992;2023-06-10T08:05:18;99126.92;;;21.86;64.50
50710;BME280;37033;49.994;21.992;2023-06-10T08:07:49;99133.08;;;21.92;64.30
50710;BME280;37033;49.994;21.992;2023-06-10T08:10:20;99134.52;;;21.87;63.75
50710;BME280;37033;49.994;21.992;2023-06-10T08:12:51;99136.09;;;21.80;64.04
50710;BME280;37033;49.994;21.992;2023-06-10T08:15:23;99135.89;;;21.79;64.23
50710;BME280;37033;49.994;21.992;2023-06-10T08:17:53;99140.17;;;21.80;64.77
50710;BME280;37033;49.994;21.992;2023-06-10T08:20:25;99139.15;;;21.81;64.56
50710;BME280;37033;49.994;21.992;2023-06-10T08:22:56;99137.84;;;21.77;64.35
50710;BME280;37033;49.994;21.992;2023-06-10T08:25:26;99138.92;;;21.70;64.51
50710;BME280;37033;49.994;21.992;2023-06-10T08:27:57;99136.21;;;21.66;64.94
50710;BME280;37033;49.994;21.992;2023-06-10T08:30:28;99139.38;;;21.70;65.35
50710;BME280;37033;49.994;21.992;2023-06-10T08:32:59;99139.79;;;21.75;65.66
50710;BME280;37033;49.994;21.992;2023-06-10T08:35:31;99135.98;;;21.86;65.74
50710;BME280;37033;49.994;21.992;2023-06-10T08:38:01;99136.70;;;21.95;65.58
50710;BME280;37033;49.994;21.992;2023-06-10T08:40:33;99135.65;;;22.01;65.03
50710;BME280;37033;49.994;21.992;2023-06-10T08:43:07;99138.04;;;21.98;64.52
50710;BME280;37033;49.994;21.992;2023-06-10T08:45:38;99141.26;;;21.94;64.27
50710;BME280;37033;49.994;21.992;2023-06-10T08:48:10;99140.86;;;21.93;64.85
50710;BME280;37033;49.994;21.992;2023-06-10T08:50:42;99144.26;;;21.99;65.37
50710;BME280;37033;49.994;21.992;2023-06-10T08:53:16;99139.70;;;22.03;65.00
50710;BME280;37033;49.994;21.992;2023-06-10T08:55:51;99136.96;;;22.00;64.86
50710;BME280;37033;49.994;21.992;2023-06-10T08:58:21;99139.87;;;22.03;64.54
50710;BME280;37033;49.994;21.992;2023-06-10T09:00:52;99144.73;;;21.98;64.27
50710;BME280;37033;49.994;21.992;2023-06-10T09:03:24;99143.56;;;21.98;64.14
50710;BME280;37033;49.994;21.992;2023-06-10T09:05:55;99136.70;;;22.00;63.60
50710;BME280;37033;49.994;21.992;2023-06-10T09:08:26;99142.55;;;21.95;63.50
50710;BME280;37033;49.994;21.992;2023-06-10T09:10:57;99143.77;;;21.95;63.66
50710;BME280;37033;49.994;21.992;2023-06-10T09:13:28;99140.74;;;21.97;63.66
50710;BME280;37033;49.994;21.992;2023-06-10T09:15:59;99138.95;;;22.01;63.89
50710;BME280;37033;49.994;21.992;2023-06-10T09:18:31;99138.57;;;22.11;63.42
50710;BME280;37033;49.994;21.992;2023-06-10T09:21:02;99135.09;;;22.13;62.84
50710;BME280;37033;49.994;21.992;2023-06-10T09:23:32;99139.81;;;22.16;63.44
50710;BME280;37033;49.994;21.992;2023-06-10T09:26:07;99139.13;;;22.30;63.52
50710;BME280;37033;49.994;21.992;2023-06-10T09:28:38;99143.70;;;22.43;63.26
50710;BME280;37033;49.994;21.992;2023-06-10T09:31:09;99144.19;;;22.47;62.68
50710;BME280;37033;49.994;21.992;2023-06-10T09:33:41;99142.48;;;22.50;62.72
50710;BME280;37033;49.994;21.992;2023-06-10T09:36:22;99142.00;;;22.51;61.72
50710;BME280;37033;49.994;21.992;2023-06-10T09:38:56;99142.70;;;22.53;61.89
50710;BME280;37033;49.994;21.992;2023-06-10T09:41:33;99140.19;;;22.62;62.08
50710;BME280;37033;49.994;21.992;2023-06-10T09:44:12;99134.94;;;22.76;61.48
50710;BME280;37033;49.994;21.992;2023-06-10T09:46:44;99138.11;;;22.96;61.16
50710;BME280;37033;49.994;21.992;2023-06-10T09:49:15;99139.06;;;23.05;61.58
50710;BME280;37033;49.994;21.992;2023-06-10T09:51:53;99139.03;;;23.10;61.48
50710;BME280;37033;49.994;21.992;2023-06-10T09:54:24;99140.90;;;23.04;60.94
50710;BME280;37033;49.994;21.992;2023-06-10T09:57:08;99139.64;;;23.02;61.09
50710;BME280;37033;49.994;21.992;2023-06-10T09:59:41;99140.62;;;23.06;59.92
50710;BME280;37033;49.994;21.992;2023-06-10T10:02:15;99137.73;;;22.99;60.05
50710;BME280;37033;49.994;21.992;2023-06-10T10:04:46;99139.18;;;23.02;59.93
50710;BME280;37033;49.994;21.992;2023-06-10T10:07:17;99136.55;;;23.07;59.44
50710;BME280;37033;49.994;21.992;2023-06-10T10:09:48;99142.58;;;23.07;59.01
50710;BME280;37033;49.994;21.992;2023-06-10T10:12:19;99147.14;;;23.05;59.00
50710;BME280;37033;49.994;21.992;2023-06-10T10:14:51;99142.21;;;23.03;58.95
50710;BME280;37033;49.994;21.992;2023-06-10T10:17:23;99144.33;;;23.02;59.03
50710;BME280;37033;49.994;21.992;2023-06-10T10:20:01;99137.11;;;23.11;58.77
50710;BME280;37033;49.994;21.992;2023-06-10T10:22:37;99141.83;;;23.25;59.27
50710;BME280;37033;49.994;21.992;2023-06-10T10:25:11;99143.32;;;23.40;57.87
50710;BME280;37033;49.994;21.992;2023-06-10T10:27:47;99144.85;;;23.55;57.60
50710;BME280;37033;49.994;21.992;2023-06-10T10:30:21;99143.05;;;23.71;56.43
50710;BME280;37033;49.994;21.992;2023-06-10T10:32:58;99145.55;;;23.66;56.02
50710;BME280;37033;49.994;21.992;2023-06-10T10:35:31;99146.10;;;23.68;57.10
50710;BME280;37033;49.994;21.992;2023-06-10T10:38:03;99147.77;;;23.74;57.39
50710;BME280;37033;49.994;21.992;2023-06-10T10:40:35;99151.12;;;23.75;57.25
50710;BME280;37033;49.994;21.992;2023-06-10T10:43:07;99153.44;;;23.69;57.21
50710;BME280;37033;49.994;21.992;2023-06-10T10:45:39;99155.05;;;23.72;57.52
50710;BME280;37033;49.994;21.992;2023-06-10T10:48:10;99154.45;;;23.80;57.32
50710;BME280;37033;49.994;21.992;2023-06-10T10:50:42;99157.63;;;23.94;57.51
50710;BME280;37033;49.994;21.992;2023-06-10T10:53:12;99161.80;;;23.97;56.02
50710;BME280;37033;49.994;21.992;2023-06-10T10:56:01;99156.55;;;23.86;56.61
50710;BME280;37033;49.994;21.992;2023-06-10T10:58:35;99163.36;;;23.77;56.69
50710;BME280;37033;49.994;21.992;2023-06-10T11:01:15;99159.56;;;23.66;57.13
50710;BME280;37033;49.994;21.992;2023-06-10T11:03:47;99156.59;;;23.51;56.78
50710;BME280;37033;49.994;21.992;2023-06-10T11:06:19;99154.03;;;23.33;57.25
50710;BME280;37033;49.994;21.992;2023-06-10T11:08:50;99149.82;;;23.24;57.64
50710;BME280;37033;49.994;21.992;2023-06-10T11:11:23;99148.78;;;23.12;57.71
50710;BME280;37033;49.994;21.992;2023-06-10T11:14:06;99146.55;;;22.97;58.15
50710;BME280;37033;49.994;21.992;2023-06-10T11:16:42;99151.50;;;22.96;58.49
50710;BME280;37033;49.994;21.992;2023-06-10T11:19:32;99152.73;;;23.06;58.52
50710;BME280;37033;49.994;21.992;2023-06-10T11:22:06;99146.41;;;23.21;58.13
50710;BME280;37033;49.994;21.992;2023-06-10T11:24:38;99146.42;;;23.35;58.43
50710;BME280;37033;49.994;21.992;2023-06-10T11:27:19;99153.81;;;23.47;58.69
50710;BME280;37033;49.994;21.992;2023-06-10T11:30:19;99154.70;;;23.53;58.76
50710;BME280;37033;49.994;21.992;2023-06-10T11:32:53;99152.96;;;23.54;58.08
50710;BME280;37033;49.994;21.992;2023-06-10T11:35:26;99152.61;;;23.53;58.61
50710;BME280;37033;49.994;21.992;2023-06-10T11:37:57;99154.14;;;23.59;58.13
50710;BME280;37033;49.994;21.992;2023-06-10T11:40:29;99153.23;;;23.56;58.15
50710;BME280;37033;49.994;21.992;2023-06-10T11:43:00;99151.34;;;23.51;58.04
50710;BME280;37033;49.994;21.992;2023-06-10T11:45:30;99155.52;;;23.42;58.41
50710;BME280;37033;49.994;21.992;2023-06-10T11:48:01;99148.04;;;23.39;58.65
50710;BME280;37033;49.994;21.992;2023-06-10T11:50:33;99145.95;;;23.40;58.81
50710;BME280;37033;49.994;21.992;2023-06-10T11:53:04;99146.22;;;23.36;58.65
50710;BME280;37033;49.994;21.992;2023-06-10T11:55:45;99145.30;;;23.36;58.77
50710;BME280;37033;49.994;21.992;2023-06-10T11:58:17;99148.64;;;23.35;58.79
50710;BME280;37033;49.994;21.992;2023-06-10T12:00:49;99148.46;;;23.32;59.11
50710;BME280;37033;49.994;21.992;2023-06-10T12:03:20;99146.69;;;23.24;59.29
50710;BME280;37033;49.994;21.992;2023-06-10T12:06:03;99146.11;;;23.23;59.26
50710;BME280;37033;49.994;21.992;2023-06-10T12:08:34;99139.80;;;23.32;59.55
50710;BME280;37033;49.994;21.992;2023-06-10T12:11:12;99141.67;;;23.30;58.56
50710;BME280;37033;49.994;21.992;2023-06-10T12:13:48;99139.61;;;23.16;59.06
50710;BME280;37033;49.994;21.992;2023-06-10T12:16:19;99133.55;;;23.24;58.99
50710;BME280;37033;49.994;21.992;2023-06-10T12:18:50;99134.33;;;23.46;59.27
50710;BME280;37033;49.994;21.992;2023-06-10T12:21:24;99139.77;;;23.76;57.87
50710;BME280;37033;49.994;21.992;2023-06-10T12:24:06;99135.86;;;23.87;57.64
50710;BME280;37033;49.994;21.992;2023-06-10T12:26:39;99129.10;;;23.87;57.60
50710;BME280;37033;49.994;21.992;2023-06-10T12:29:30;99131.48;;;23.97;57.04
50710;BME280;37033;49.994;21.992;2023-06-10T12:32:02;99125.20;;;23.99;56.88
50710;BME280;37033;49.994;21.992;2023-06-10T12:34:39;99122.60;;;24.05;57.30
50710;BME280;37033;49.994;21.992;2023-06-10T12:37:14;99123.41;;;24.09;57.55
50710;BME280;37033;49.994;21.992;2023-06-10T12:39:52;99123.95;;;24.12;56.67
50710;BME280;37033;49.994;21.992;2023-06-10T12:42:24;99122.52;;;23.97;56.60
50710;BME280;37033;49.994;21.992;2023-06-10T12:44:55;99118.96;;;23.89;56.81
50710;BME280;37033;49.994;21.992;2023-06-10T12:47:33;99118.39;;;23.87;57.46
50710;BME280;37033;49.994;21.992;2023-06-10T12:50:06;99115.98;;;23.92;57.08
50710;BME280;37033;49.994;21.992;2023-06-10T12:52:37;99111.23;;;23.82;56.97
50710;BME280;37033;49.994;21.992;2023-06-10T12:55:09;99111.59;;;23.87;57.48
50710;BME280;37033;49.994;21.992;2023-06-10T12:57:49;99103.23;;;24.03;56.77
50710;BME280;37033;49.994;21.992;2023-06-10T13:00:20;99101.45;;;24.08;56.27
50710;BME280;37033;49.994;21.992;2023-06-10T13:02:51;99098.13;;;23.98;56.58
50710;BME280;37033;49.994;21.992;2023-06-10T13:05:22;99103.29;;;23.94;56.12
50710;BME280;37033;49.994;21.992;2023-06-10T13:07:53;99103.92;;;23.81;55.93
50710;BME280;37033;49.994;21.992;2023-06-10T13:10:24;99109.29;;;23.65;56.72
50710;BME280;37033;49.994;21.992;2023-06-10T13:12:55;99108.81;;;23.63;57.26
50710;BME280;37033;49.994;21.992;2023-06-10T13:15:26;99110.14;;;23.75;57.09